首页
METAR-TAF:

METAR-TAF

机场 :

大加那利机场

大加那利岛, 西班牙

纬度: 27-56N, 经度: 015-23W, 海拔: 23米

当前天气观测

该预报发布于35分钟前的07:30 UTC
风速8节,风向
温度 21°C
湿度 73%
气压 1017 hPa
能见度10公里或以上
多云层高于2500英尺

METAR: GCLP 230730Z 01008KT 9999 BKN025 21/16 Q1017 NOSIG

时间: 09:05 (08:05 UTC)

预报

该预报发布于1小时和9分钟前的06:56 UTC
预报有效从23日的 06点(UTC)到 24日的 03点(UTC)
风速18节,风向北转东北
能见度10公里或以上
多云层高于2500英尺
几率 30% :
短暂存在
从 23日的 13点(UTC)到 23日的 17点(UTC)
风速18节,风向,有时为28节阵风
几率 30% :
短暂存在
从 23日的 19点(UTC)到 23日的 22点(UTC)
风速5节,风向
几率 40% :
短暂存在
从 23日的 07点(UTC)到 23日的 09点(UTC)
风速8节,风向

TAF: GCLP 230656Z 2306/2403 02018KT 9999 BKN025 TX26/2315Z TN20/2306Z PROB30 TEMPO 2313/2317 36018G28KT PROB30 TEMPO 2319/2322 19005KT PROB40 TEMPO 2307/2309 01008KT

超过4000个机场的气象观测和天气预报(METAR&TAF报告)。

可查询的气象台以黄色和红色小点在地图上表示。

将鼠标移到小点上方,可查看气象台名称。

然后点击查看天气观测和预报。

如需切换地图:点击带黑十字的绿色按钮放大地图;点击带横线的绿色按钮缩小地图;或者点击绿色箭头查看邻近地区的地图。


METAR-TAF: